Time;durP1;ratioP1;P1;durP2;ratioP2;P2;SDS_P1;SDS_P2;PMS_P1;PMS_P2;Temp;Humidity;BMP_temperature;BMP_pressure;BME280_temperature;BME280_humidity;BME280_pressure;Samples;Min_cycle;Max_cycle;Signal;HPM_P1;HPM_P2
2021/12/16 00:01:47;;;;;;;;;;;4.50;99.90;;;;;;4962486;28;20046;-88
2021/12/16 00:09:25;;;;;;;15.07;8.50;;;4.50;99.90;;;;;;4972550;28;20067;-89
2021/12/16 00:34:02;;;;;;;10.40;5.45;;;4.30;99.90;;;;;;4985961;28;19914;-88
2021/12/16 00:36:31;;;;;;;11.75;5.95;;;4.30;99.90;;;;;;4972786;28;20031;-86
2021/12/16 00:38:58;;;;;;;13.75;5.93;;;4.30;99.90;;;;;;4970190;28;20019;-87
2021/12/16 00:41:24;;;;;;;10.20;5.50;;;4.30;99.90;;;;;;4972547;28;20057;-87
2021/12/16 00:44:20;;;;;;;12.93;6.63;;;4.30;99.90;;;;;;4976098;28;20031;-88
2021/12/16 00:47:14;;;;;;;10.18;5.47;;;4.30;99.90;;;;;;4968048;28;20031;-89
2021/12/16 00:49:46;;;;;;;13.95;6.35;;;4.30;99.90;;;;;;4987502;28;20391;-89
2021/12/16 00:57:50;;;;;;;11.10;5.35;;;4.30;99.90;;;;;;4966678;28;20038;-87
2021/12/16 01:00:17;;;;;;;9.73;5.18;;;4.30;99.90;;;;;;4975860;28;20290;-88
2021/12/16 01:48:37;;;;;;;12.43;6.97;;;4.40;99.90;;;;;;4975121;28;20115;-87
2021/12/16 01:50:40;;;;;;;9.77;4.97;;;4.30;99.90;;;;;;4975660;28;20039;-87
2021/12/16 01:56:07;;;;;;;10.13;5.88;;;4.40;99.90;;;;;;4968857;28;20047;-87
2021/12/16 01:58:34;;;;;;;10.05;5.45;;;4.40;99.90;;;;;;4971014;28;20647;-88
2021/12/16 02:01:18;;;;;;;11.93;6.00;;;4.30;99.90;;;;;;4970470;28;20026;-87
2021/12/16 02:03:48;;;;;;;;;;;4.30;99.90;;;;;;4986845;28;20054;-88
2021/12/16 02:08:45;;;;;;;10.52;6.22;;;4.30;99.90;;;;;;4974612;28;20038;-87
2021/12/16 02:11:29;;;;;;;11.63;6.25;;;4.30;99.90;;;;;;4986404;28;20049;-87
2021/12/16 02:33:17;;;;;;;11.82;6.25;;;4.10;99.90;;;;;;4980376;28;20084;-87
2021/12/16 02:35:46;;;;;;;11.48;5.53;;;4.10;99.90;;;;;;4966764;28;20093;-88
2021/12/16 02:38:18;;;;;;;14.18;6.63;;;4.10;99.90;;;;;;4967075;28;20400;-87
2021/12/16 02:40:46;;;;;;;15.32;6.97;;;4.10;99.90;;;;;;4974404;28;20039;-88
2021/12/16 02:48:39;;;;;;;12.02;6.45;;;4.00;99.90;;;;;;4965680;28;20399;-88
2021/12/16 02:51:09;;;;;;;13.60;6.72;;;4.00;99.90;;;;;;4966239;28;20104;-84
2021/12/16 02:53:41;;;;;;;16.73;7.57;;;4.00;99.90;;;;;;4981920;28;20034;-85
2021/12/16 02:56:08;;;;;;;16.58;7.30;;;3.90;99.90;;;;;;4980607;28;20031;-87
2021/12/16 02:58:38;;;;;;;13.70;7.65;;;4.00;99.90;;;;;;4975719;28;20083;-85
2021/12/16 03:01:28;;;;;;;15.88;7.75;;;4.00;99.90;;;;;;4967450;28;20102;-87
2021/12/16 03:03:56;;;;;;;16.75;7.72;;;4.00;99.90;;;;;;4966226;28;20039;-88
2021/12/16 03:06:22;;;;;;;15.27;8.32;;;4.00;99.90;;;;;;4972758;28;20030;-86
2021/12/16 03:08:49;;;;;;;16.00;7.40;;;3.90;99.90;;;;;;4972700;28;20073;-87
2021/12/16 03:11:26;;;;;;;17.73;7.90;;;3.90;99.90;;;;;;4969100;28;20050;-87
2021/12/16 03:23:12;;;;;;;17.58;7.38;;;3.90;99.90;;;;;;4974306;28;20023;-88
2021/12/16 03:25:25;;;;;;;19.85;9.15;;;3.90;99.90;;;;;;4962947;28;20038;-87
2021/12/16 03:30:47;;;;;;;15.32;6.95;;;3.90;99.90;;;;;;4976148;28;20033;-88
2021/12/16 03:35:41;;;;;;;16.20;8.02;;;3.90;99.90;;;;;;4966923;28;20073;-86
2021/12/16 03:38:10;;;;;;;15.93;8.30;;;3.90;99.90;;;;;;4976706;28;20031;-87
2021/12/16 03:40:37;;;;;;;12.90;6.60;;;3.80;99.90;;;;;;4971048;28;20062;-87
2021/12/16 03:43:15;;;;;;;12.02;6.88;;;3.90;99.90;;;;;;4966917;28;20035;-86
2021/12/16 03:46:27;;;;;;;15.57;7.53;;;3.90;99.90;;;;;;4969944;28;20050;-88
2021/12/16 03:49:05;;;;;;;17.83;8.30;;;3.90;99.90;;;;;;4963629;28;20030;-88
2021/12/16 03:51:43;;;;;;;15.68;7.90;;;3.90;99.90;;;;;;4981315;28;20512;-88
2021/12/16 03:54:20;;;;;;;13.63;6.30;;;3.90;99.90;;;;;;4972072;28;20027;-88
2021/12/16 03:56:47;;;;;;;13.07;7.00;;;3.90;99.90;;;;;;4971935;28;20295;-88
2021/12/16 03:59:17;;;;;;;13.48;6.90;;;3.90;99.90;;;;;;4984944;28;20031;-87
2021/12/16 04:01:43;;;;;;;13.73;6.07;;;4.00;99.90;;;;;;4979765;28;20022;-87
2021/12/16 04:04:09;;;;;;;12.55;5.97;;;4.00;99.90;;;;;;4975802;28;20038;-88
2021/12/16 04:06:37;;;;;;;13.32;6.57;;;4.00;99.90;;;;;;4977094;28;20022;-87
2021/12/16 04:09:06;;;;;;;10.80;5.32;;;4.10;99.90;;;;;;4970299;28;20023;-86
2021/12/16 04:11:39;;;;;;;11.00;5.53;;;4.00;99.90;;;;;;4971306;28;20027;-86
2021/12/16 04:14:11;;;;;;;11.98;5.50;;;4.10;99.90;;;;;;4983573;28;20031;-89
2021/12/16 04:16:49;;;;;;;10.27;5.13;;;4.10;99.90;;;;;;4973551;28;20023;-86
2021/12/16 04:19:18;;;;;;;13.30;6.75;;;4.10;99.90;;;;;;4977730;28;20054;-86
2021/12/16 04:21:48;;;;;;;13.27;6.55;;;4.00;99.90;;;;;;4969965;28;20058;-87
2021/12/16 04:24:14;;;;;;;13.40;5.72;;;4.10;99.90;;;;;;4975231;28;20412;-87
2021/12/16 04:26:43;;;;;;;10.45;5.97;;;4.10;99.90;;;;;;4972559;28;20023;-89
2021/12/16 04:29:09;;;;;;;9.90;5.03;;;4.10;99.90;;;;;;4986235;28;20031;-84
2021/12/16 04:31:36;;;;;;;8.15;4.88;;;4.10;99.90;;;;;;4978423;28;20105;-88
2021/12/16 04:34:04;;;;;;;7.75;4.22;;;4.10;99.90;;;;;;4966665;28;20106;-87
2021/12/16 04:36:30;;;;;;;8.90;5.03;;;4.10;99.90;;;;;;4971290;28;20118;-87
2021/12/16 04:38:56;;;;;;;9.48;4.90;;;4.10;99.90;;;;;;4971763;28;20055;-87
2021/12/16 04:41:22;;;;;;;10.48;4.63;;;4.20;99.90;;;;;;4971021;28;20050;-85
2021/12/16 04:43:51;;;;;;;7.40;3.72;;;4.20;99.90;;;;;;4974044;28;20058;-87
2021/12/16 04:46:20;;;;;;;9.32;4.60;;;4.20;99.90;;;;;;4972142;28;20038;-88
2021/12/16 04:48:49;;;;;;;9.18;4.10;;;4.20;99.90;;;;;;4975452;28;20102;-87
2021/12/16 04:51:16;;;;;;;7.70;3.72;;;4.20;99.90;;;;;;4976017;28;20038;-87
2021/12/16 04:53:42;;;;;;;7.57;4.20;;;4.20;99.90;;;;;;4969409;28;20020;-89
2021/12/16 04:56:09;;;;;;;7.65;4.05;;;4.20;99.90;;;;;;4970599;28;20395;-88
2021/12/16 04:58:36;;;;;;;7.78;4.13;;;4.20;99.90;;;;;;4972014;28;20023;-88
2021/12/16 05:01:04;;;;;;;6.68;3.63;;;4.20;99.90;;;;;;4980935;28;20045;-86
2021/12/16 05:03:31;;;;;;;7.05;3.80;;;4.20;99.90;;;;;;4974873;28;20023;-86
2021/12/16 05:05:57;;;;;;;5.90;3.70;;;4.20;99.90;;;;;;4974571;28;20035;-88
2021/12/16 05:08:24;;;;;;;6.80;3.95;;;4.10;99.90;;;;;;4971083;28;20033;-87
2021/12/16 05:10:52;;;;;;;5.60;3.28;;;4.10;99.90;;;;;;4966843;28;20053;-88
2021/12/16 05:13:23;;;;;;;7.22;3.42;;;4.20;99.90;;;;;;4977855;28;20055;-88
2021/12/16 05:15:49;;;;;;;6.90;3.97;;;4.20;99.90;;;;;;4966797;28;20470;-87
2021/12/16 05:18:23;;;;;;;8.23;3.90;;;4.20;99.90;;;;;;4971552;28;20027;-88
2021/12/16 05:20:51;;;;;;;8.23;3.75;;;4.20;99.90;;;;;;4971362;28;20026;-86
2021/12/16 05:28:29;;;;;;;9.18;4.38;;;4.20;99.90;;;;;;4967494;28;20045;-85
2021/12/16 05:30:57;;;;;;;9.05;4.55;;;4.20;99.90;;;;;;4972289;28;20035;-86
2021/12/16 05:33:23;;;;;;;7.68;4.20;;;4.20;99.90;;;;;;4970505;28;20114;-86
2021/12/16 05:35:50;;;;;;;7.78;4.18;;;4.20;99.90;;;;;;4968310;28;20098;-88
2021/12/16 05:38:16;;;;;;;8.10;4.28;;;4.20;99.90;;;;;;4974751;28;20051;-86
2021/12/16 05:40:42;;;;;;;6.28;3.65;;;4.30;99.90;;;;;;4970977;28;20027;-86
2021/12/16 05:43:12;;;;;;;7.30;4.20;;;4.30;99.90;;;;;;4965282;28;20024;-76
2021/12/16 05:45:39;;;;;;;7.43;3.80;;;4.40;99.90;;;;;;4965813;28;20038;-76
2021/12/16 05:48:07;;;;;;;7.75;4.10;;;4.50;99.90;;;;;;4965893;28;20082;-76
2021/12/16 05:50:37;;;;;;;8.02;3.88;;;4.60;99.90;;;;;;4970099;28;20042;-88
2021/12/16 05:53:04;;;;;;;6.97;4.03;;;4.60;99.90;;;;;;4978380;28;20027;-87
2021/12/16 05:55:30;;;;;;;6.45;3.65;;;4.60;99.90;;;;;;4975571;28;20030;-87
2021/12/16 05:57:56;;;;;;;8.77;3.88;;;4.60;99.90;;;;;;4975461;28;20023;-88
2021/12/16 06:00:27;;;;;;;7.78;3.50;;;4.60;99.90;;;;;;4975485;28;20122;-88
2021/12/16 06:02:53;;;;;;;6.82;3.47;;;4.50;99.90;;;;;;4978822;28;20083;-87
2021/12/16 06:05:19;;;;;;;7.55;4.18;;;4.50;99.90;;;;;;4977721;28;20058;-87
2021/12/16 06:07:46;;;;;;;8.32;4.22;;;4.40;99.90;;;;;;4974006;28;20035;-85
2021/12/16 06:10:46;;;;;;;7.35;4.05;;;4.40;99.90;;;;;;4976557;28;20034;-87
2021/12/16 06:13:00;;;;;;;6.18;3.67;;;4.40;99.90;;;;;;4975181;28;20540;-87
2021/12/16 06:16:01;;;;;;;7.55;3.63;;;4.40;99.90;;;;;;4974378;28;20046;-86
2021/12/16 06:29:16;;;;;;;6.97;3.80;;;4.40;99.90;;;;;;4971313;28;20023;-86
2021/12/16 06:31:42;;;;;;;6.72;4.32;;;4.40;99.90;;;;;;4977089;28;20049;-86
2021/12/16 06:34:08;;;;;;;8.63;3.95;;;4.40;99.90;;;;;;4973650;28;20162;-85
2021/12/16 06:36:34;;;;;;;8.48;4.00;;;4.40;99.90;;;;;;4976029;28;20106;-87
2021/12/16 06:39:00;;;;;;;8.55;3.85;;;4.40;99.90;;;;;;4973892;28;20094;-87
2021/12/16 06:41:33;;;;;;;8.65;3.78;;;4.40;99.90;;;;;;4974059;28;20138;-87
2021/12/16 06:44:01;;;;;;;8.13;4.43;;;4.40;99.90;;;;;;4973561;28;20038;-89
2021/12/16 06:46:33;;;;;;;10.05;3.95;;;4.40;99.90;;;;;;4973244;28;20031;-87
2021/12/16 06:49:00;;;;;;;6.60;3.70;;;4.50;99.90;;;;;;4969498;28;20058;-87
2021/12/16 06:51:38;;;;;;;6.57;3.10;;;4.50;99.90;;;;;;4973238;28;20043;-88
2021/12/16 06:54:09;;;;;;;10.88;4.30;;;4.50;99.90;;;;;;4973422;28;20062;-88
2021/12/16 06:56:49;;;;;;;9.43;4.07;;;4.50;99.90;;;;;;4975213;28;20484;-87
2021/12/16 06:59:29;;;;;;;7.65;3.67;;;4.50;99.90;;;;;;4972150;28;20063;-89
2021/12/16 07:04:27;;;;;;;6.28;2.80;;;4.50;99.90;;;;;;4967439;28;20369;-86
2021/12/16 07:06:53;;;;;;;6.55;3.03;;;4.50;99.90;;;;;;4968979;28;20050;-88
2021/12/16 07:09:20;;;;;;;6.03;2.72;;;4.50;99.90;;;;;;4985887;28;20041;-86
2021/12/16 07:11:51;;;;;;;7.68;3.40;;;4.50;99.90;;;;;;4966395;28;20551;-88
2021/12/16 07:14:19;;;;;;;7.10;2.75;;;4.50;99.90;;;;;;4970413;28;20023;-85
2021/12/16 07:16:52;;;;;;;7.07;3.15;;;4.50;99.90;;;;;;4972705;28;20102;-88
2021/12/16 07:19:18;;;;;;;6.22;3.03;;;4.60;99.90;;;;;;4983236;28;20050;-86
2021/12/16 07:21:45;;;;;;;6.97;3.60;;;4.60;99.90;;;;;;4985034;28;21400;-86
2021/12/16 07:24:15;;;;;;;10.90;6.43;;;4.60;99.90;;;;;;4970938;28;20089;-87
2021/12/16 07:26:42;;;;;;;14.82;6.82;;;4.60;99.90;;;;;;4962938;28;20035;-88
2021/12/16 07:29:08;;;;;;;14.90;7.35;;;4.60;99.90;;;;;;4966644;28;20035;-87
2021/12/16 07:31:36;;;;;;;21.67;10.85;;;4.60;99.90;;;;;;4972480;28;20031;-86
2021/12/16 07:34:03;;;;;;;18.63;9.18;;;4.60;99.90;;;;;;4980602;28;20041;-87
2021/12/16 07:36:30;;;;;;;19.85;9.75;;;4.60;99.90;;;;;;4975279;28;20037;-88
2021/12/16 07:38:56;;;;;;;17.75;8.02;;;4.60;99.90;;;;;;4972842;28;20109;-88
2021/12/16 07:41:25;;;;;;;16.83;8.45;;;4.50;99.90;;;;;;4970456;28;20026;-87
2021/12/16 07:46:21;;;;;;;18.67;9.13;;;4.50;99.90;;;;;;4974624;28;20103;-86
2021/12/16 07:48:47;;;;;;;18.17;9.05;;;4.50;99.90;;;;;;4992148;28;20058;-86
2021/12/16 07:51:12;;;;;;;21.95;10.55;;;4.50;99.90;;;;;;4966399;28;20053;-90
2021/12/16 07:53:39;;;;;;;21.70;10.90;;;4.60;99.90;;;;;;4983903;28;20062;-85
2021/12/16 07:56:06;;;;;;;18.35;10.15;;;4.50;99.90;;;;;;4972295;28;20066;-88
2021/12/16 07:58:32;;;;;;;20.88;10.18;;;4.50;99.90;;;;;;4972565;28;20082;-86
2021/12/16 08:00:59;;;;;;;19.10;10.20;;;4.60;99.90;;;;;;4971008;28;20030;-88
2021/12/16 08:03:26;;;;;;;21.30;10.98;;;4.60;99.90;;;;;;4971582;28;20038;-86
2021/12/16 08:05:58;;;;;;;21.42;10.52;;;4.60;99.90;;;;;;4973830;28;20074;-88
2021/12/16 08:08:24;;;;;;;22.15;10.05;;;4.60;99.90;;;;;;4971125;28;20365;-86
2021/12/16 08:10:51;;;;;;;18.38;8.63;;;4.70;99.90;;;;;;4973128;28;20038;-86
2021/12/16 08:13:17;;;;;;;18.50;9.13;;;4.70;99.90;;;;;;4969498;28;20373;-87
2021/12/16 08:15:44;;;;;;;18.05;8.90;;;4.70;99.90;;;;;;4975264;28;20053;-88
2021/12/16 08:18:10;;;;;;;20.98;8.80;;;4.70;99.90;;;;;;4973260;28;20302;-86
2021/12/16 08:20:36;;;;;;;19.60;9.52;;;4.70;99.90;;;;;;4969903;28;20038;-87
2021/12/16 08:23:03;;;;;;;19.50;9.70;;;4.80;99.90;;;;;;4968089;28;20027;-86
2021/12/16 08:25:30;;;;;;;19.73;9.23;;;4.80;99.90;;;;;;4971231;28;20026;-87
2021/12/16 08:27:57;;;;;;;19.38;8.23;;;4.80;99.90;;;;;;4969700;28;20049;-85
2021/12/16 08:30:28;;;;;;;14.70;7.55;;;4.80;99.90;;;;;;4968832;28;20475;-84
2021/12/16 08:32:55;;;;;;;17.83;8.85;;;4.80;99.90;;;;;;4963837;28;20406;-88
2021/12/16 08:35:22;;;;;;;16.35;9.02;;;4.80;99.90;;;;;;4969087;28;20034;-84
2021/12/16 08:37:47;;;;;;;18.33;9.02;;;4.80;99.90;;;;;;4973735;28;20102;-88
2021/12/16 08:40:19;;;;;;;16.30;8.70;;;4.80;99.90;;;;;;4973246;28;20100;-84
2021/12/16 08:42:45;;;;;;;14.90;7.95;;;4.80;99.90;;;;;;4975265;28;20023;-86
2021/12/16 08:45:16;;;;;;;18.73;9.07;;;4.80;99.90;;;;;;4970527;28;20092;-85
2021/12/16 08:47:42;;;;;;;18.77;8.27;;;4.70;99.90;;;;;;4991013;28;20026;-86
2021/12/16 08:50:10;;;;;;;17.50;9.10;;;4.80;99.90;;;;;;4976865;28;20522;-85
2021/12/16 08:52:36;;;;;;;17.35;8.80;;;4.80;99.90;;;;;;4965556;28;20031;-86
2021/12/16 08:55:04;;;;;;;20.58;9.50;;;4.80;99.90;;;;;;4969705;28;20045;-85
2021/12/16 08:57:30;;;;;;;17.80;8.80;;;4.90;99.90;;;;;;4977335;28;20133;-85
2021/12/16 08:59:55;;;;;;;19.05;8.98;;;4.90;99.90;;;;;;4972504;28;20062;-85
2021/12/16 09:02:22;;;;;;;19.40;9.20;;;4.90;99.90;;;;;;4969061;28;20035;-87
2021/12/16 09:04:48;;;;;;;18.60;8.80;;;4.90;99.90;;;;;;4973253;28;20027;-87
2021/12/16 09:07:15;;;;;;;20.58;8.98;;;5.00;99.90;;;;;;4964864;28;20131;-87
2021/12/16 09:09:43;;;;;;;20.92;10.57;;;5.00;99.90;;;;;;4973902;28;20038;-88
2021/12/16 09:12:37;;;;;;;18.58;9.65;;;5.00;99.90;;;;;;4966777;28;20081;-87
2021/12/16 09:15:07;;;;;;;19.25;10.13;;;5.00;99.90;;;;;;4970845;28;20498;-87
2021/12/16 09:17:33;;;;;;;19.58;9.40;;;5.00;99.90;;;;;;4975191;28;20027;-87
2021/12/16 09:19:59;;;;;;;21.45;10.77;;;5.00;99.90;;;;;;4974896;28;20019;-86
2021/12/16 09:22:26;;;;;;;20.80;10.60;;;5.10;99.90;;;;;;4970739;28;20031;-84
2021/12/16 09:24:53;;;;;;;21.48;11.02;;;5.10;99.90;;;;;;4993725;28;20055;-85
2021/12/16 09:27:19;;;;;;;26.98;12.00;;;5.10;99.90;;;;;;4997644;28;20039;-86
2021/12/16 09:29:46;;;;;;;18.45;10.30;;;5.10;99.90;;;;;;4986952;28;20031;-85
2021/12/16 09:32:12;;;;;;;21.85;11.52;;;5.10;99.90;;;;;;4975113;28;20082;-86
2021/12/16 09:34:41;;;;;;;21.88;11.38;;;5.10;99.90;;;;;;4987467;28;20038;-85
2021/12/16 09:37:07;;;;;;;20.02;10.27;;;5.10;99.90;;;;;;4974072;28;20023;-85
2021/12/16 09:39:33;;;;;;;23.60;11.15;;;5.10;99.90;;;;;;4965933;28;20055;-85
2021/12/16 09:42:00;;;;;;;20.75;11.10;;;5.10;99.90;;;;;;4971959;28;20113;-85
2021/12/16 09:44:28;;;;;;;21.42;10.23;;;5.20;99.90;;;;;;4975419;28;20034;-85
2021/12/16 09:46:56;;;;;;;19.63;10.25;;;5.20;99.90;;;;;;4963606;28;20126;-84
2021/12/16 09:49:23;;;;;;;19.33;9.77;;;5.20;99.90;;;;;;4983710;28;20035;-86
2021/12/16 09:51:51;;;;;;;26.63;11.88;;;5.20;99.90;;;;;;4978932;28;20018;-88
2021/12/16 09:54:23;;;;;;;19.42;10.60;;;5.30;99.90;;;;;;4967522;28;20031;-88
2021/12/16 09:56:50;;;;;;;20.60;9.98;;;5.30;99.90;;;;;;4976802;28;20015;-85
2021/12/16 09:59:17;;;;;;;20.95;10.02;;;5.30;99.90;;;;;;4991713;28;20030;-86
2021/12/16 10:01:47;;;;;;;20.65;10.68;;;5.40;99.90;;;;;;4976051;28;20023;-86
2021/12/16 10:04:15;;;;;;;22.75;11.02;;;5.40;99.90;;;;;;4972147;28;20027;-86
2021/12/16 10:06:42;;;;;;;20.90;10.88;;;5.40;99.90;;;;;;4976389;28;20026;-86
2021/12/16 10:09:10;;;;;;;20.02;10.13;;;5.40;99.90;;;;;;4967315;28;20042;-84
2021/12/16 10:11:41;;;;;;;21.00;10.70;;;5.40;99.90;;;;;;4976880;28;20083;-85
2021/12/16 10:19:27;;;;;;;18.83;9.98;;;5.50;99.90;;;;;;4969717;28;20170;-87
2021/12/16 10:21:55;;;;;;;19.02;9.85;;;5.50;99.90;;;;;;4978381;28;20029;-87
2021/12/16 10:24:32;;;;;;;19.67;9.75;;;5.60;99.90;;;;;;4977047;28;20034;-86
2021/12/16 10:27:25;;;;;;;18.73;9.38;;;5.60;99.90;;;;;;4974290;28;20035;-87
2021/12/16 10:29:58;;;;;;;20.08;9.90;;;5.70;99.90;;;;;;4971218;28;20035;-86
2021/12/16 10:32:43;;;;;;;15.50;8.27;;;5.70;99.90;;;;;;4972398;28;20125;-88
2021/12/16 10:35:26;;;;;;;15.48;7.93;;;5.70;99.90;;;;;;4990030;28;20456;-87
2021/12/16 10:37:59;;;;;;;16.65;8.32;;;5.80;99.90;;;;;;4977646;28;20029;-88
2021/12/16 10:40:45;;;;;;;17.40;8.80;;;5.80;99.90;;;;;;4969163;28;20061;-88
2021/12/16 10:43:15;;;;;;;15.27;8.52;;;5.80;99.90;;;;;;4989355;28;20023;-88
2021/12/16 10:45:48;;;;;;;16.13;8.27;;;5.80;99.90;;;;;;4978041;28;20383;-87
2021/12/16 10:48:26;;;;;;;13.45;8.00;;;5.80;99.90;;;;;;4970796;28;20026;-86
2021/12/16 10:50:54;;;;;;;16.25;8.60;;;5.80;99.90;;;;;;4970408;28;20057;-86
2021/12/16 10:53:48;;;;;;;17.45;8.32;;;5.80;99.90;;;;;;4967183;28;20039;-87
2021/12/16 10:56:15;;;;;;;13.18;7.13;;;5.90;99.90;;;;;;4979389;28;20026;-84
2021/12/16 10:58:54;;;;;;;13.23;7.00;;;5.80;99.90;;;;;;4974814;28;20027;-87
2021/12/16 11:01:38;;;;;;;14.02;7.45;;;5.90;99.90;;;;;;4974382;28;20030;-86
2021/12/16 11:04:18;;;;;;;15.50;8.02;;;5.90;99.90;;;;;;4975318;28;20027;-88
2021/12/16 11:06:57;;;;;;;14.45;7.55;;;5.90;99.90;;;;;;4977850;28;20499;-87
2021/12/16 11:09:34;;;;;;;13.65;7.30;;;6.00;99.90;;;;;;4967897;28;20023;-87
2021/12/16 11:12:18;;;;;;;17.17;8.05;;;5.90;99.90;;;;;;4970520;28;20118;-86
2021/12/16 11:14:51;;;;;;;13.43;6.85;;;6.00;99.90;;;;;;4974947;28;20026;-86
2021/12/16 11:17:18;;;;;;;11.63;6.93;;;6.00;99.90;;;;;;4979704;28;20524;-87
2021/12/16 11:19:55;;;;;;;12.77;6.93;;;6.00;99.90;;;;;;4965808;28;20332;-86
2021/12/16 11:22:29;;;;;;;13.35;7.43;;;6.10;99.90;;;;;;4969775;28;20118;-86
2021/12/16 11:24:55;;;;;;;;;;;6.10;99.90;;;;;;4979067;28;20578;-86
2021/12/16 11:27:29;;;;;;;10.13;5.90;;;6.10;99.90;;;;;;4994852;28;19914;-87
2021/12/16 11:29:57;;;;;;;14.50;6.50;;;6.20;99.90;;;;;;4982326;28;20067;-87
2021/12/16 11:33:03;;;;;;;13.50;6.90;;;6.20;99.90;;;;;;4971612;28;20042;-85
2021/12/16 11:35:45;;;;;;;15.18;7.63;;;6.20;99.90;;;;;;4962860;28;20119;-87
2021/12/16 11:38:22;;;;;;;15.75;7.13;;;6.10;99.90;;;;;;4986473;28;20031;-87
2021/12/16 11:41:02;;;;;;;14.85;8.05;;;6.10;99.90;;;;;;4975004;28;20035;-85
2021/12/16 11:43:42;;;;;;;13.50;7.30;;;6.10;99.90;;;;;;4967673;28;20034;-82
2021/12/16 11:46:23;;;;;;;14.07;7.47;;;6.10;99.90;;;;;;4965891;28;20033;-85
2021/12/16 11:48:52;;;;;;;14.07;7.30;;;6.10;99.90;;;;;;4975357;28;20435;-85
2021/12/16 11:51:30;;;;;;;14.23;7.05;;;6.10;99.90;;;;;;4973409;28;20027;-86
2021/12/16 11:54:00;;;;;;;14.65;7.68;;;6.20;99.90;;;;;;4990568;28;20476;-86
2021/12/16 11:56:40;;;;;;;16.42;8.52;;;6.20;99.90;;;;;;4974865;28;20074;-86
2021/12/16 11:59:07;;;;;;;15.05;8.05;;;6.20;99.90;;;;;;4975999;28;20027;-88
2021/12/16 12:01:37;;;;;;;17.15;8.25;;;6.20;99.90;;;;;;4969635;28;20041;-86
2021/12/16 12:04:07;;;;;;;15.30;7.72;;;6.10;99.90;;;;;;4981727;28;20235;-84
2021/12/16 12:06:34;;;;;;;15.60;8.40;;;6.20;99.90;;;;;;4977456;28;20026;-84
2021/12/16 12:09:01;;;;;;;14.00;7.47;;;6.20;99.90;;;;;;4966794;28;20035;-84
2021/12/16 12:11:32;;;;;;;16.25;7.32;;;6.10;99.90;;;;;;4967506;28;20085;-85
2021/12/16 12:14:08;;;;;;;15.70;8.10;;;6.10;99.90;;;;;;4964364;28;20054;-86
2021/12/16 12:16:43;;;;;;;21.25;8.35;;;6.10;99.90;;;;;;4968414;28;20042;-84
2021/12/16 12:19:11;;;;;;;19.40;10.00;;;6.10;99.90;;;;;;4966582;28;20493;-87
2021/12/16 12:21:39;;;;;;;20.92;10.57;;;6.10;99.90;;;;;;4966069;28;20039;-87
2021/12/16 12:24:11;;;;;;;23.58;10.75;;;6.00;99.90;;;;;;4975899;28;20716;-88
2021/12/16 12:26:42;;;;;;;20.13;10.23;;;6.10;99.90;;;;;;4976141;28;20118;-86
2021/12/16 12:29:19;;;;;;;22.67;11.02;;;6.00;99.90;;;;;;4979163;28;20579;-86
2021/12/16 12:31:51;;;;;;;21.50;10.80;;;5.90;99.90;;;;;;4970201;28;20023;-87
2021/12/16 12:34:18;;;;;;;19.45;10.57;;;5.90;99.90;;;;;;4972038;28;20122;-86
2021/12/16 12:36:46;;;;;;;22.58;11.00;;;5.90;99.90;;;;;;4970538;28;20015;-85
2021/12/16 12:39:16;;;;;;;19.10;10.52;;;6.00;99.90;;;;;;4977178;28;20436;-85
2021/12/16 12:41:43;;;;;;;23.67;10.68;;;5.90;99.90;;;;;;4976477;28;20019;-86
2021/12/16 12:44:09;;;;;;;20.75;11.93;;;5.90;99.90;;;;;;4972237;28;20027;-86
2021/12/16 12:46:38;;;;;;;21.45;11.40;;;5.80;99.90;;;;;;4974368;28;20023;-86
2021/12/16 12:49:07;;;;;;;27.00;12.88;;;5.80;99.90;;;;;;4968510;28;20031;-86
2021/12/16 12:51:39;;;;;;;21.83;11.35;;;5.80;99.90;;;;;;4978454;28;20018;-86
2021/12/16 12:54:35;;;;;;;21.95;11.55;;;5.80;99.90;;;;;;4972939;28;20036;-82
2021/12/16 12:57:25;;;;;;;23.77;12.02;;;5.80;99.90;;;;;;4978002;28;20047;-84
2021/12/16 12:59:52;;;;;;;24.48;11.45;;;5.80;99.90;;;;;;4965799;28;20026;-84
2021/12/16 13:02:39;;;;;;;19.75;11.23;;;5.90;99.90;;;;;;4985836;28;20023;-86
2021/12/16 13:05:20;;;;;;;22.77;10.80;;;5.80;99.90;;;;;;4977050;28;20076;-87
2021/12/16 13:07:55;;;;;;;19.90;10.55;;;5.90;99.90;;;;;;4988426;28;20031;-84
2021/12/16 13:10:30;;;;;;;23.55;11.35;;;6.00;99.90;;;;;;4976265;28;20038;-86
2021/12/16 13:27:24;;;;;;;18.70;10.65;;;6.00;99.90;;;;;;4971655;28;20045;-88
2021/12/16 13:33:00;;;;;;;20.77;10.70;;;6.00;99.90;;;;;;4974430;28;20027;-89
2021/12/16 13:35:35;;;;;;;19.13;10.70;;;6.00;99.90;;;;;;4977999;28;20030;-88
2021/12/16 13:38:07;;;;;;;22.83;9.48;;;6.10;99.90;;;;;;4975003;28;20026;-88
2021/12/16 13:40:37;;;;;;;20.27;10.40;;;6.10;99.90;;;;;;4991290;28;20023;-88
2021/12/16 13:43:12;;;;;;;23.13;11.05;;;6.10;99.90;;;;;;4973688;28;20663;-87
2021/12/16 13:45:53;;;;;;;21.60;11.32;;;6.20;99.90;;;;;;4968627;28;20031;-86
2021/12/16 14:02:11;;;;;;;19.15;10.40;;;6.30;99.90;;;;;;4969927;28;20030;-86
2021/12/16 14:10:14;;;;;;;20.02;10.93;;;6.40;99.90;;;;;;4973949;28;20102;-86
2021/12/16 14:16:13;;;;;;;17.48;10.05;;;6.50;99.90;;;;;;4979045;28;20042;-88
2021/12/16 14:41:37;;;;;;;21.45;10.32;;;6.30;99.90;;;;;;4971425;28;20018;-87
2021/12/16 14:45:10;;;;;;;20.25;11.52;;;6.20;99.90;;;;;;4973796;28;20099;-86
2021/12/16 14:49:31;;;;;;;22.38;10.18;;;6.20;99.90;;;;;;4980648;28;20399;-89
2021/12/16 14:51:59;;;;;;;21.30;11.50;;;6.00;99.90;;;;;;4992855;28;20090;-87
2021/12/16 14:54:26;;;;;;;21.17;11.32;;;6.00;99.90;;;;;;4973782;28;20408;-86
2021/12/16 14:56:59;;;;;;;23.48;11.10;;;5.90;99.90;;;;;;4972413;28;20019;-87
2021/12/16 14:59:26;;;;;;;22.73;10.25;;;5.90;99.90;;;;;;4976056;28;20046;-87
2021/12/16 15:01:56;;;;;;;19.23;9.93;;;5.80;99.90;;;;;;4981284;28;20027;-87
2021/12/16 15:04:25;;;;;;;17.20;9.00;;;5.80;99.90;;;;;;4979029;28;20034;-85
2021/12/16 15:07:04;;;;;;;17.88;10.40;;;5.70;99.90;;;;;;4992780;28;20031;-88
2021/12/16 15:09:35;;;;;;;19.17;11.07;;;5.70;99.90;;;;;;4975364;28;20066;-86
2021/12/16 15:36:50;;;;;;;20.83;10.55;;;5.60;99.90;;;;;;4969518;28;20062;-87
2021/12/16 15:45:00;;;;;;;17.85;10.70;;;5.50;99.90;;;;;;4971283;28;20045;-85
2021/12/16 15:47:26;;;;;;;17.55;9.23;;;5.50;99.90;;;;;;4969463;28;20041;-86
2021/12/16 15:49:53;;;;;;;19.35;10.25;;;5.50;99.90;;;;;;4976211;28;20031;-86
2021/12/16 15:52:20;;;;;;;18.92;11.05;;;5.50;99.90;;;;;;4977090;28;20118;-85
2021/12/16 15:54:50;;;;;;;19.73;10.57;;;5.50;99.90;;;;;;4967888;28;20035;-85
2021/12/16 15:57:18;;;;;;;21.17;10.73;;;5.50;99.90;;;;;;4976567;28;20028;-85
2021/12/16 15:59:48;;;;;;;23.20;11.25;;;5.50;99.90;;;;;;4983631;28;20035;-84
2021/12/16 16:02:16;;;;;;;18.70;9.90;;;5.60;99.90;;;;;;4976576;28;20018;-85
2021/12/16 16:04:42;;;;;;;21.48;10.98;;;5.50;99.90;;;;;;4968768;28;20600;-86
2021/12/16 16:07:14;;;;;;;16.98;9.73;;;5.50;99.90;;;;;;4965366;28;20067;-87
2021/12/16 16:09:52;;;;;;;18.92;9.45;;;5.60;99.90;;;;;;4971587;28;20035;-85
2021/12/16 16:12:23;;;;;;;19.13;10.35;;;5.60;99.90;;;;;;4978582;28;20518;-87
2021/12/16 16:14:50;;;;;;;16.80;9.27;;;5.50;99.90;;;;;;4970876;28;20027;-85
2021/12/16 16:17:22;;;;;;;18.13;10.32;;;5.50;99.90;;;;;;4974526;28;20027;-86
2021/12/16 16:19:51;;;;;;;15.88;9.52;;;5.50;99.90;;;;;;4977024;28;20035;-87
2021/12/16 16:22:17;;;;;;;26.05;10.73;;;5.50;99.90;;;;;;4972478;28;20086;-84
2021/12/16 16:24:49;;;;;;;18.58;9.90;;;5.60;99.90;;;;;;4982632;28;20065;-85
2021/12/16 16:27:27;;;;;;;19.63;10.65;;;5.60;99.90;;;;;;4976702;28;20078;-86
2021/12/16 16:29:58;;;;;;;16.42;10.55;;;5.60;99.90;;;;;;4972058;28;20027;-85
2021/12/16 16:32:28;;;;;;;16.45;8.85;;;5.60;99.90;;;;;;4979681;28;20026;-86
2021/12/16 16:34:55;;;;;;;17.45;9.52;;;5.60;99.90;;;;;;4989119;28;20030;-84
2021/12/16 16:37:21;;;;;;;20.30;9.43;;;5.50;99.90;;;;;;4974669;28;20476;-86
2021/12/16 16:39:54;;;;;;;17.85;9.43;;;5.60;99.90;;;;;;4978743;28;20037;-85
2021/12/16 16:42:20;;;;;;;19.40;9.70;;;5.60;99.90;;;;;;4973802;28;20030;-85
2021/12/16 16:44:53;;;;;;;18.77;10.23;;;5.60;99.90;;;;;;4972410;28;20031;-85
2021/12/16 16:47:37;;;;;;;20.15;10.38;;;5.60;99.90;;;;;;4974328;28;20019;-85
2021/12/16 16:50:09;;;;;;;20.35;9.70;;;5.60;99.90;;;;;;4975213;28;20395;-86
2021/12/16 16:52:42;;;;;;;18.58;10.10;;;5.60;99.90;;;;;;4975314;28;20035;-86
2021/12/16 16:55:28;;;;;;;18.88;10.93;;;5.60;99.90;;;;;;4967711;28;20030;-85
2021/12/16 16:57:58;;;;;;;23.33;10.48;;;5.60;99.90;;;;;;4968677;28;20372;-77
2021/12/16 17:00:50;;;;;;;26.35;11.98;;;5.70;99.90;;;;;;4964376;28;20093;-77
2021/12/16 17:03:21;;;;;;;22.35;10.75;;;5.80;99.90;;;;;;4967806;28;20053;-77
2021/12/16 17:05:57;;;;;;;19.85;9.93;;;5.90;99.90;;;;;;4967804;28;20037;-76
2021/12/16 17:08:36;;;;;;;22.92;11.68;;;5.90;99.90;;;;;;4966412;28;20038;-77
2021/12/16 17:11:16;;;;;;;23.55;11.43;;;5.90;99.90;;;;;;4969269;28;20034;-77